Climatologie pour Saint-Brevin les Pins
Jour • Résumé pour juin 14, 2017 Système :  Métrique    Anglais   Mixte
« - 1 jour
+ 1 jour »
Jour Semaine Mois Année Personnalisé
  Maximum : Minimum : Moyenne :
Température sous abri : 27.6 °C 14.8 °C 20.8 °C
Point de rosée : 19.9 °C 13.8 °C 16.2 °C
Humidité : 95 % 57 % 76 %
Vitesse du vent : 16.1 km/h 0.0 km/h 3.5 km/h
Rafale : 20.9 km/h - -
Direction :- - SSW
Pression : 1015.5 hPa 1013.1 hPa -
Précipitations : 0.3 mm    
Historical Graphs
 
 
Tableau de données pour juin 14, 2017
Heure Tempé Pt rosée Pression Vent Vitesse Rafale Humidité Taux pluie (/hr) Soleil
00:00 18.9 °C 14.0 °C 1015.1 hPa ESE 3.2 km/h 9.7 km/h 73 % 0.0 mm 0 W/m2
00:05 18.9 °C 14.0 °C 1015.1 hPa East 4.8 km/h 9.7 km/h 73 % 0.0 mm 0 W/m2
00:10 18.8 °C 13.9 °C 1015.1 hPa Calm   9.7 km/h 73 % 0.0 mm 0 W/m2
00:15 18.7 °C 14.0 °C 1015.5 hPa East 3.2 km/h 8.0 km/h 74 % 0.0 mm 0 W/m2
00:20 18.8 °C 14.0 °C 1015.5 hPa Calm   8.0 km/h 74 % 0.0 mm 0 W/m2
00:25 18.7 °C 13.9 °C 1015.5 hPa ENE 1.6 km/h 8.0 km/h 74 % 0.0 mm 0 W/m2
00:30 18.7 °C 14.1 °C 1015.1 hPa ENE 3.2 km/h 9.7 km/h 75 % 0.0 mm 0 W/m2
00:35 18.8 °C 14.1 °C 1015.1 hPa East 4.8 km/h 12.9 km/h 74 % 0.0 mm 0 W/m2
00:40 19.0 °C 14.3 °C 1015.1 hPa East 3.2 km/h 12.9 km/h 74 % 0.0 mm 0 W/m2
00:45 19.1 °C 14.3 °C 1014.8 hPa East 8.0 km/h 12.9 km/h 74 % 0.0 mm 0 W/m2
00:50 19.0 °C 14.5 °C 1014.4 hPa ESE 9.7 km/h 16.1 km/h 75 % 0.0 mm 0 W/m2
01:05 18.7 °C 14.6 °C 1014.4 hPa SE 4.8 km/h 17.7 km/h 77 % 0.0 mm 0 W/m2
01:20 18.1 °C 14.9 °C 1014.8 hPa ENE 4.8 km/h 16.1 km/h 82 % 0.0 mm 0 W/m2
01:30 18.2 °C 14.9 °C 1015.1 hPa ESE 6.4 km/h 12.9 km/h 81 % 0.0 mm 0 W/m2
01:35 18.2 °C 14.9 °C 1015.1 hPa SE 1.6 km/h 11.3 km/h 81 % 0.0 mm 0 W/m2
01:40 18.1 °C 14.7 °C 1015.1 hPa East 3.2 km/h 9.7 km/h 81 % 0.0 mm 0 W/m2
01:45 17.9 °C 14.8 °C 1014.8 hPa ESE 3.2 km/h 11.3 km/h 82 % 0.0 mm 0 W/m2
01:50 17.8 °C 14.7 °C 1014.8 hPa SSE 6.4 km/h 11.3 km/h 82 % 0.0 mm 0 W/m2
01:55 17.7 °C 14.7 °C 1014.8 hPa East 1.6 km/h 9.7 km/h 83 % 0.0 mm 0 W/m2
02:00 17.3 °C 14.7 °C 1014.8 hPa Calm   9.7 km/h 85 % 0.0 mm 0 W/m2
02:05 16.8 °C 14.4 °C 1015.1 hPa Calm   1.6 km/h 86 % 0.0 mm 0 W/m2
02:10 16.3 °C 14.3 °C 1015.1 hPa Calm   3.2 km/h 88 % 0.0 mm 0 W/m2
02:20 15.9 °C 14.3 °C 1015.1 hPa East 1.6 km/h 4.8 km/h 90 % 0.0 mm 0 W/m2
02:25 15.8 °C 14.2 °C 1015.1 hPa Calm   4.8 km/h 90 % 0.0 mm 0 W/m2
02:30 15.8 °C 14.3 °C 1015.1 hPa East 1.6 km/h 3.2 km/h 91 % 0.0 mm 0 W/m2
02:35 15.6 °C 14.1 °C 1014.8 hPa Calm   3.2 km/h 91 % 0.0 mm 0 W/m2
02:40 15.6 °C 14.1 °C 1014.8 hPa Calm   3.2 km/h 91 % 0.0 mm 0 W/m2
02:45 15.4 °C 14.2 °C 1015.1 hPa Calm   4.8 km/h 92 % 0.0 mm 0 W/m2
02:50 15.4 °C 14.1 °C 1015.1 hPa Calm   4.8 km/h 92 % 0.0 mm 0 W/m2
02:55 15.4 °C 14.2 °C 1015.1 hPa Calm   3.2 km/h 92 % 0.0 mm 0 W/m2
03:00 15.4 °C 14.2 °C 1015.1 hPa Calm   1.6 km/h 92 % 0.0 mm 0 W/m2
03:05 15.3 °C 14.0 °C 1015.1 hPa Calm   3.2 km/h 92 % 0.0 mm 0 W/m2
03:10 15.2 °C 13.9 °C 1014.8 hPa East 3.2 km/h 3.2 km/h 92 % 0.0 mm 0 W/m2
03:15 15.2 °C 14.0 °C 1015.1 hPa Calm   3.2 km/h 93 % 0.0 mm 0 W/m2
03:20 15.1 °C 14.0 °C 1015.1 hPa Calm   3.2 km/h 93 % 0.0 mm 0 W/m2
03:25 15.1 °C 13.9 °C 1015.1 hPa Calm     93 % 0.0 mm 0 W/m2
03:30 15.0 °C 13.9 °C 1015.1 hPa Calm     93 % 0.0 mm 0 W/m2
03:35 14.9 °C 13.8 °C 1015.1 hPa Calm     93 % 0.0 mm 0 W/m2
03:40 14.9 °C 13.9 °C 1015.1 hPa Calm   3.2 km/h 94 % 0.0 mm 0 W/m2
03:45 14.9 °C 13.9 °C 1015.1 hPa Calm   3.2 km/h 94 % 0.0 mm 0 W/m2
03:50 14.9 °C 13.9 °C 1015.1 hPa East 1.6 km/h 3.2 km/h 94 % 0.0 mm 0 W/m2
03:55 14.9 °C 13.9 °C 1015.1 hPa Calm   4.8 km/h 94 % 0.0 mm 0 W/m2
04:00 14.8 °C 13.9 °C 1014.8 hPa Calm   4.8 km/h 94 % 0.0 mm 0 W/m2
04:05 14.8 °C 13.9 °C 1014.8 hPa Calm   1.6 km/h 94 % 0.0 mm 0 W/m2
04:10 14.8 °C 13.8 °C 1014.8 hPa NNE 4.8 km/h 6.4 km/h 94 % 0.0 mm 0 W/m2
04:20 14.8 °C 13.8 °C 1014.8 hPa NNE 1.6 km/h 4.8 km/h 94 % 0.0 mm 0 W/m2
04:25 14.8 °C 14.0 °C 1014.8 hPa NNE 3.2 km/h 4.8 km/h 95 % 0.0 mm 0 W/m2
04:30 15.1 °C 14.3 °C 1014.8 hPa Calm   3.2 km/h 95 % 0.0 mm 0 W/m2
04:35 15.2 °C 14.4 °C 1014.8 hPa Calm   4.8 km/h 95 % 0.0 mm 0 W/m2
04:40 15.3 °C 14.5 °C 1014.8 hPa NE 1.6 km/h 6.4 km/h 95 % 0.0 mm 0 W/m2
04:45 15.4 °C 14.4 °C 1014.4 hPa NE 3.2 km/h 6.4 km/h 94 % 0.0 mm 0 W/m2
04:50 15.4 °C 14.5 °C 1014.4 hPa Calm   6.4 km/h 94 % 0.0 mm 0 W/m2
04:55 15.6 °C 14.6 °C 1014.4 hPa Calm   8.0 km/h 94 % 0.0 mm 0 W/m2
05:00 15.8 °C 14.7 °C 1014.4 hPa East 1.6 km/h 8.0 km/h 93 % 0.0 mm 0 W/m2
05:05 15.8 °C 14.5 °C 1014.4 hPa NE 1.6 km/h 6.4 km/h 92 % 0.0 mm 0 W/m2
05:10 15.7 °C 14.4 °C 1014.4 hPa NE 1.6 km/h 6.4 km/h 92 % 0.0 mm 0 W/m2
05:15 15.6 °C 14.3 °C 1014.4 hPa NE 1.6 km/h 6.4 km/h 92 % 0.0 mm 0 W/m2
05:20 15.3 °C 14.0 °C 1014.1 hPa NE 4.8 km/h 9.7 km/h 92 % 0.0 mm 0 W/m2
05:25 15.2 °C 14.1 °C 1014.1 hPa Calm   9.7 km/h 93 % 0.0 mm 0 W/m2
05:30 15.3 °C 14.0 °C 1014.1 hPa Calm   8.0 km/h 92 % 0.0 mm 0 W/m2
05:35 15.4 °C 14.1 °C 1014.1 hPa Calm   8.0 km/h 92 % 0.0 mm 0 W/m2
05:40 15.4 °C 14.2 °C 1014.1 hPa ENE 4.8 km/h 8.0 km/h 92 % 0.0 mm 0 W/m2
05:45 15.4 °C 14.2 °C 1014.1 hPa Calm   4.8 km/h 92 % 0.0 mm 0 W/m2
05:50 15.6 °C 14.1 °C 1013.8 hPa Calm   8.0 km/h 91 % 0.0 mm 0 W/m2
05:55 15.6 °C 14.1 °C 1013.8 hPa Calm   8.0 km/h 91 % 0.0 mm 0 W/m2
06:00 15.7 °C 14.3 °C 1014.1 hPa Calm   8.0 km/h 91 % 0.0 mm 0 W/m2
06:05 15.8 °C 14.2 °C 1014.4 hPa Calm   6.4 km/h 90 % 0.0 mm 0 W/m2
06:15 15.3 °C 13.9 °C 1014.4 hPa ENE 1.6 km/h 3.2 km/h 91 % 0.0 mm 0 W/m2
06:20 15.3 °C 14.0 °C 1014.1 hPa ENE 3.2 km/h 3.2 km/h 92 % 0.0 mm 0 W/m2
06:25 15.3 °C 14.0 °C 1013.8 hPa NE 3.2 km/h 8.0 km/h 92 % 0.0 mm 9 W/m2
06:30 15.6 °C 14.3 °C 1013.8 hPa Calm   8.0 km/h 92 % 0.0 mm 7 W/m2
06:35 15.9 °C 14.5 °C 1014.1 hPa NE 3.2 km/h 8.0 km/h 91 % 0.0 mm 9 W/m2
06:40 16.0 °C 14.4 °C 1013.8 hPa ENE 4.8 km/h 6.4 km/h 90 % 0.0 mm 11 W/m2
06:45 16.0 °C 14.4 °C 1013.8 hPa ENE 4.8 km/h 6.4 km/h 90 % 0.0 mm 12 W/m2
06:50 15.9 °C 14.5 °C 1013.8 hPa Calm   8.0 km/h 91 % 0.0 mm 12 W/m2
06:55 15.9 °C 14.4 °C 1013.8 hPa Calm   8.0 km/h 91 % 0.0 mm 14 W/m2
07:00 15.9 °C 14.4 °C 1014.1 hPa Calm   6.4 km/h 91 % 0.0 mm 21 W/m2
07:05 15.8 °C 14.3 °C 1013.8 hPa NE 3.2 km/h 6.4 km/h 91 % 0.0 mm 32 W/m2
07:10 15.9 °C 14.5 °C 1013.4 hPa ENE 3.2 km/h 9.7 km/h 91 % 0.0 mm 32 W/m2
07:15 16.1 °C 14.6 °C 1013.4 hPa ENE 11.3 km/h 12.9 km/h 91 % 0.0 mm 33 W/m2
07:25 16.3 °C 14.3 °C 1013.1 hPa East 4.8 km/h 20.9 km/h 88 % 0.0 mm 26 W/m2
07:30 16.3 °C 14.3 °C 1013.4 hPa ESE 4.8 km/h 20.9 km/h 88 % 0.0 mm 28 W/m2
07:35 16.4 °C 14.3 °C 1013.4 hPa East 8.0 km/h 12.9 km/h 87 % 0.0 mm 30 W/m2
07:40 16.4 °C 14.3 °C 1013.8 hPa Calm   12.9 km/h 87 % 0.0 mm 35 W/m2
07:45 16.4 °C 14.3 °C 1013.4 hPa East 4.8 km/h 11.3 km/h 87 % 0.0 mm 44 W/m2
07:50 16.4 °C 14.3 °C 1013.4 hPa ENE 3.2 km/h 11.3 km/h 87 % 0.0 mm 58 W/m2
07:55 16.6 °C 14.4 °C 1013.8 hPa Calm   11.3 km/h 87 % 0.0 mm 70 W/m2
08:00 16.8 °C 14.4 °C 1014.1 hPa East 1.6 km/h 11.3 km/h 86 % 0.0 mm 88 W/m2
08:05 16.9 °C 14.9 °C 1014.1 hPa East 1.6 km/h 4.8 km/h 88 % 0.0 mm 109 W/m2
08:10 17.0 °C 15.0 °C 1014.4 hPa NNW 1.6 km/h 6.4 km/h 88 % 0.0 mm 116 W/m2
08:15 17.1 °C 14.7 °C 1014.4 hPa Calm   6.4 km/h 86 % 0.0 mm 118 W/m2
08:20 17.2 °C 15.2 °C 1014.4 hPa NNW 1.6 km/h 4.8 km/h 88 % 0.0 mm 153 W/m2
08:25 17.3 °C 15.0 °C 1014.4 hPa Calm   4.8 km/h 86 % 0.0 mm 137 W/m2
08:30 17.4 °C 15.0 °C 1014.1 hPa NE 4.8 km/h 8.0 km/h 86 % 0.0 mm 250 W/m2
08:35 17.6 °C 15.2 °C 1014.1 hPa NNE 6.4 km/h 9.7 km/h 86 % 0.0 mm 130 W/m2
08:40 17.8 °C 15.2 °C 1014.1 hPa Calm   9.7 km/h 85 % 0.0 mm 279 W/m2
08:45 18.1 °C 15.0 °C 1014.4 hPa East 1.6 km/h 11.3 km/h 82 % 0.0 mm 209 W/m2
08:50 18.3 °C 15.0 °C 1014.4 hPa Calm   11.3 km/h 81 % 0.0 mm 339 W/m2
08:55 18.7 °C 15.5 °C 1014.4 hPa East 3.2 km/h 8.0 km/h 82 % 0.0 mm 353 W/m2
09:00 18.9 °C 15.4 °C 1014.8 hPa Calm   4.8 km/h 80 % 0.0 mm 366 W/m2
09:05 19.3 °C 15.6 °C 1014.8 hPa East 4.8 km/h 4.8 km/h 79 % 0.0 mm 378 W/m2
09:10 19.5 °C 15.6 °C 1014.8 hPa ESE 1.6 km/h 8.0 km/h 78 % 0.0 mm 385 W/m2
09:15 19.7 °C 15.6 °C 1014.8 hPa East 4.8 km/h 9.7 km/h 77 % 0.3 mm 403 W/m2
09:20 19.8 °C 15.5 °C 1014.8 hPa NE 3.2 km/h 9.7 km/h 76 % 0.3 mm 420 W/m2
09:25 20.0 °C 15.8 °C 1014.8 hPa East 1.6 km/h 8.0 km/h 77 % 0.3 mm 422 W/m2
09:30 20.3 °C 15.9 °C 1014.8 hPa East 8.0 km/h 8.0 km/h 76 % 0.3 mm 471 W/m2
09:35 20.3 °C 15.8 °C 1014.8 hPa East 1.6 km/h 9.7 km/h 75 % 0.3 mm 496 W/m2
09:40 20.8 °C 16.0 °C 1015.1 hPa Calm   9.7 km/h 74 % 0.3 mm 573 W/m2
09:45 20.8 °C 16.0 °C 1015.1 hPa ENE 4.8 km/h 9.7 km/h 74 % 0.3 mm 257 W/m2
09:50 20.9 °C 16.1 °C 1015.1 hPa East 1.6 km/h 8.0 km/h 74 % 0.3 mm 227 W/m2
09:55 20.7 °C 16.1 °C 1015.1 hPa East 1.6 km/h 8.0 km/h 75 % 0.3 mm 566 W/m2
10:00 21.1 °C 16.5 °C 1015.1 hPa ESE 4.8 km/h 8.0 km/h 75 % 0.3 mm 643 W/m2
10:05 21.8 °C 17.4 °C 1015.1 hPa Calm   6.4 km/h 76 % 0.3 mm 717 W/m2
10:10 21.9 °C 17.0 °C 1015.1 hPa SE 1.6 km/h 6.4 km/h 74 % 0.3 mm 322 W/m2
10:15 22.0 °C 16.5 °C 1015.1 hPa South 4.8 km/h 9.7 km/h 71 % 0.0 mm 756 W/m2
10:20 22.0 °C 16.3 °C 1015.1 hPa SSE 1.6 km/h 9.7 km/h 70 % 0.0 mm 758 W/m2
10:25 21.9 °C 16.7 °C 1015.1 hPa SSE 3.2 km/h 8.0 km/h 72 % 0.0 mm 315 W/m2
10:30 22.1 °C 16.6 °C 1015.1 hPa ESE 3.2 km/h 8.0 km/h 71 % 0.0 mm 274 W/m2
10:35 22.1 °C 16.4 °C 1015.1 hPa SSE 6.4 km/h 8.0 km/h 70 % 0.0 mm 209 W/m2
10:40 21.8 °C 16.5 °C 1015.1 hPa Calm   8.0 km/h 72 % 0.0 mm 192 W/m2
10:45 21.7 °C 16.6 °C 1015.1 hPa South 1.6 km/h 6.4 km/h 73 % 0.0 mm 192 W/m2
10:50 21.7 °C 16.7 °C 1015.1 hPa Calm   4.8 km/h 73 % 0.0 mm 216 W/m2
10:55 21.8 °C 16.5 °C 1015.1 hPa SSE 1.6 km/h 6.4 km/h 72 % 0.0 mm 229 W/m2
11:00 21.7 °C 16.5 °C 1015.1 hPa Calm   6.4 km/h 72 % 0.0 mm 248 W/m2
11:05 21.9 °C 17.0 °C 1015.1 hPa SSE 4.8 km/h 4.8 km/h 74 % 0.0 mm 278 W/m2
11:10 22.1 °C 16.8 °C 1015.1 hPa SSW 4.8 km/h 8.0 km/h 72 % 0.0 mm 330 W/m2
11:15 22.2 °C 16.9 °C 1015.5 hPa South 1.6 km/h 8.0 km/h 72 % 0.0 mm 359 W/m2
11:20 22.3 °C 17.2 °C 1015.1 hPa South 1.6 km/h 8.0 km/h 73 % 0.0 mm 390 W/m2
11:25 22.7 °C 17.6 °C 1015.1 hPa Calm   6.4 km/h 73 % 0.0 mm 418 W/m2
11:30 22.7 °C 18.0 °C 1014.8 hPa Calm   4.8 km/h 75 % 0.0 mm 469 W/m2
11:35 23.3 °C 17.9 °C 1015.1 hPa ESE 3.2 km/h 6.4 km/h 72 % 0.0 mm 715 W/m2
11:40 23.2 °C 17.4 °C 1015.1 hPa Calm   6.4 km/h 70 % 0.0 mm 445 W/m2
11:45 22.8 °C 17.0 °C 1014.8 hPa Calm   6.4 km/h 70 % 0.0 mm 422 W/m2
11:50 23.0 °C 17.5 °C 1014.8 hPa Calm   3.2 km/h 71 % 0.0 mm 462 W/m2
11:55 23.2 °C 17.0 °C 1014.8 hPa Calm   3.2 km/h 68 % 0.0 mm 494 W/m2
12:00 23.5 °C 17.5 °C 1014.8 hPa North 3.2 km/h 3.2 km/h 69 % 0.0 mm 480 W/m2
12:05 23.1 °C 17.8 °C 1014.8 hPa WNW 9.7 km/h 11.3 km/h 72 % 0.0 mm 482 W/m2
12:10 23.1 °C 18.0 °C 1014.8 hPa NW 6.4 km/h 11.3 km/h 73 % 0.0 mm 475 W/m2
12:15 23.2 °C 18.5 °C 1014.8 hPa WNW 3.2 km/h 9.7 km/h 75 % 0.0 mm 515 W/m2
12:20 23.2 °C 18.1 °C 1014.8 hPa NNW 4.8 km/h 9.7 km/h 73 % 0.0 mm 626 W/m2
12:25 23.5 °C 18.6 °C 1014.8 hPa WNW 4.8 km/h 9.7 km/h 74 % 0.0 mm 531 W/m2
12:30 23.4 °C 17.9 °C 1014.8 hPa Calm   9.7 km/h 71 % 0.0 mm 554 W/m2
12:35 23.9 °C 19.0 °C 1014.8 hPa NW 3.2 km/h 9.7 km/h 74 % 0.0 mm 566 W/m2
12:40 23.8 °C 17.0 °C 1014.8 hPa WNW 1.6 km/h 9.7 km/h 66 % 0.0 mm 464 W/m2
12:45 23.7 °C 17.9 °C 1014.8 hPa NW 3.2 km/h 8.0 km/h 70 % 0.0 mm 427 W/m2
12:50 23.8 °C 18.0 °C 1014.8 hPa WNW 4.8 km/h 6.4 km/h 70 % 0.0 mm 531 W/m2
12:55 23.9 °C 17.6 °C 1014.8 hPa WNW 1.6 km/h 8.0 km/h 68 % 0.0 mm 399 W/m2
13:00 23.9 °C 17.4 °C 1014.4 hPa NNW 4.8 km/h 8.0 km/h 67 % 0.0 mm 617 W/m2
13:05 24.4 °C 17.9 °C 1014.8 hPa WNW 8.0 km/h 8.0 km/h 67 % 0.0 mm 821 W/m2
13:10 24.6 °C 17.0 °C 1014.4 hPa Calm   9.7 km/h 63 % 0.0 mm 1123 W/m2
13:15 25.0 °C 17.7 °C 1014.4 hPa Calm   9.7 km/h 64 % 0.0 mm 1123 W/m2
13:20 25.4 °C 18.1 °C 1014.4 hPa Calm   8.0 km/h 64 % 0.0 mm 1076 W/m2
13:25 25.9 °C 17.8 °C 1014.4 hPa NNW 4.8 km/h 9.7 km/h 61 % 0.0 mm 636 W/m2
13:30 25.7 °C 18.1 °C 1014.1 hPa NNW 1.6 km/h 16.1 km/h 63 % 0.0 mm 649 W/m2
13:35 26.2 °C 18.6 °C 1014.1 hPa ENE 3.2 km/h 16.1 km/h 63 % 0.0 mm 531 W/m2
13:40 25.9 °C 18.3 °C 1014.1 hPa Calm   11.3 km/h 63 % 0.0 mm 1004 W/m2
13:45 26.8 °C 18.4 °C 1014.1 hPa Calm   9.7 km/h 60 % 0.0 mm 983 W/m2
13:50 26.8 °C 18.6 °C 1014.1 hPa North 6.4 km/h 9.7 km/h 61 % 0.0 mm 916 W/m2
13:55 26.5 °C 17.8 °C 1014.1 hPa NNW 3.2 km/h 9.7 km/h 59 % 0.0 mm 891 W/m2
14:00 26.7 °C 18.5 °C 1014.1 hPa WNW 6.4 km/h 8.0 km/h 61 % 0.0 mm 882 W/m2
14:05 26.9 °C 18.5 °C 1014.1 hPa WNW 6.4 km/h 11.3 km/h 60 % 0.0 mm 879 W/m2
14:10 26.8 °C 19.7 °C 1014.1 hPa WNW 12.9 km/h 12.9 km/h 65 % 0.0 mm 886 W/m2
14:15 26.2 °C 17.8 °C 1014.1 hPa SW 4.8 km/h 12.9 km/h 60 % 0.0 mm 882 W/m2
14:20 25.9 °C 17.8 °C 1013.8 hPa West 4.8 km/h 11.3 km/h 61 % 0.0 mm 881 W/m2
14:25 26.8 °C 18.4 °C 1014.1 hPa WNW 6.4 km/h 11.3 km/h 60 % 0.0 mm 879 W/m2
14:30 26.7 °C 18.8 °C 1013.8 hPa NNW 8.0 km/h 9.7 km/h 62 % 0.0 mm 875 W/m2
14:35 27.3 °C 18.6 °C 1013.8 hPa West 3.2 km/h 9.7 km/h 59 % 0.0 mm 879 W/m2
14:40 26.9 °C 18.7 °C 1013.8 hPa NW 8.0 km/h 11.3 km/h 61 % 0.0 mm 870 W/m2
14:45 27.3 °C 19.1 °C 1013.8 hPa Calm   11.3 km/h 61 % 0.0 mm 874 W/m2
14:50 27.1 °C 18.4 °C 1013.8 hPa West 8.0 km/h 12.9 km/h 59 % 0.0 mm 868 W/m2
14:55 26.9 °C 18.5 °C 1013.8 hPa West 8.0 km/h 12.9 km/h 60 % 0.0 mm 863 W/m2
15:00 27.3 °C 18.3 °C 1013.8 hPa WNW 6.4 km/h 12.9 km/h 58 % 0.0 mm 861 W/m2
15:05 27.6 °C 19.9 °C 1013.8 hPa WSW 4.8 km/h 11.3 km/h 63 % 0.0 mm 858 W/m2
15:10 27.2 °C 18.5 °C 1013.8 hPa West 4.8 km/h 12.9 km/h 59 % 0.0 mm 853 W/m2
15:15 25.7 °C 17.6 °C 1013.8 hPa SW 8.0 km/h 12.9 km/h 61 % 0.0 mm 847 W/m2
15:20 25.6 °C 18.0 °C 1013.8 hPa WSW 3.2 km/h 12.9 km/h 63 % 0.0 mm 842 W/m2
15:25 25.3 °C 18.7 °C 1014.1 hPa West 12.9 km/h 14.5 km/h 67 % 0.0 mm 838 W/m2
15:30 25.4 °C 18.1 °C 1014.1 hPa West 11.3 km/h 14.5 km/h 64 % 0.0 mm 831 W/m2
15:35 25.2 °C 17.6 °C 1014.1 hPa West 8.0 km/h 14.5 km/h 63 % 0.0 mm 828 W/m2
15:40 25.4 °C 18.6 °C 1013.8 hPa WSW 3.2 km/h 14.5 km/h 66 % 0.0 mm 821 W/m2
15:45 25.8 °C 17.9 °C 1013.8 hPa West 6.4 km/h 12.9 km/h 62 % 0.0 mm 814 W/m2
15:50 25.7 °C 17.8 °C 1013.8 hPa West 6.4 km/h 12.9 km/h 62 % 0.0 mm 807 W/m2
15:55 25.7 °C 18.1 °C 1013.8 hPa WNW 9.7 km/h 12.9 km/h 63 % 0.0 mm 800 W/m2
16:00 25.8 °C 18.8 °C 1013.8 hPa West 6.4 km/h 12.9 km/h 65 % 0.0 mm 795 W/m2
16:05 26.4 °C 18.3 °C 1013.8 hPa WSW 6.4 km/h 11.3 km/h 61 % 0.0 mm 786 W/m2
16:10 26.4 °C 18.3 °C 1013.8 hPa WNW 3.2 km/h 11.3 km/h 61 % 0.0 mm 777 W/m2
16:15 26.4 °C 18.3 °C 1013.8 hPa West 9.7 km/h 11.3 km/h 61 % 0.0 mm 770 W/m2
16:20 26.4 °C 18.8 °C 1013.8 hPa SW 8.0 km/h 12.9 km/h 63 % 0.0 mm 759 W/m2
16:25 26.6 °C 17.9 °C 1013.8 hPa WSW 6.4 km/h 12.9 km/h 59 % 0.0 mm 752 W/m2
16:30 26.4 °C 18.6 °C 1013.8 hPa West 6.4 km/h 11.3 km/h 62 % 0.0 mm 744 W/m2
16:35 26.7 °C 18.6 °C 1013.8 hPa WSW 6.4 km/h 11.3 km/h 61 % 0.0 mm 733 W/m2
16:45 26.3 °C 18.4 °C 1013.8 hPa SW 6.4 km/h 16.1 km/h 62 % 0.0 mm 712 W/m2
16:50 26.1 °C 18.0 °C 1013.8 hPa SSW 3.2 km/h 12.9 km/h 61 % 0.0 mm 703 W/m2
16:55 26.1 °C 17.7 °C 1013.8 hPa Calm   12.9 km/h 60 % 0.0 mm 691 W/m2
17:00 26.7 °C 18.0 °C 1013.8 hPa WSW 4.8 km/h 12.9 km/h 59 % 0.0 mm 682 W/m2
17:05 26.6 °C 18.4 °C 1013.8 hPa West 9.7 km/h 14.5 km/h 61 % 0.0 mm 671 W/m2
17:10 26.2 °C 17.8 °C 1013.8 hPa West 1.6 km/h 14.5 km/h 60 % 0.0 mm 659 W/m2
17:15 26.1 °C 17.9 °C 1013.8 hPa West 8.0 km/h 14.5 km/h 61 % 0.0 mm 650 W/m2
17:20 25.9 °C 18.1 °C 1013.8 hPa WSW 11.3 km/h 14.5 km/h 62 % 0.0 mm 636 W/m2
17:25 25.9 °C 17.8 °C 1013.8 hPa West 16.1 km/h 16.1 km/h 61 % 0.0 mm 628 W/m2
17:30 25.9 °C 18.6 °C 1013.8 hPa WNW 3.2 km/h 16.1 km/h 64 % 0.0 mm 612 W/m2
17:35 25.9 °C 18.3 °C 1013.8 hPa SSW 6.4 km/h 14.5 km/h 63 % 0.0 mm 601 W/m2
17:40 26.7 °C 18.6 °C 1013.8 hPa West 3.2 km/h 14.5 km/h 61 % 0.0 mm 589 W/m2
17:45 26.8 °C 17.9 °C 1013.8 hPa SW 11.3 km/h 14.5 km/h 58 % 0.0 mm 577 W/m2
17:50 26.3 °C 17.1 °C 1013.8 hPa West 6.4 km/h 14.5 km/h 57 % 0.0 mm 570 W/m2
17:55 25.6 °C 17.3 °C 1013.8 hPa West 11.3 km/h 16.1 km/h 60 % 0.0 mm 538 W/m2
18:00 25.7 °C 17.3 °C 1013.8 hPa WSW 3.2 km/h 16.1 km/h 60 % 0.0 mm 541 W/m2
18:05 25.9 °C 17.8 °C 1013.8 hPa SW 4.8 km/h 14.5 km/h 61 % 0.0 mm 529 W/m2
18:10 26.4 °C 17.8 °C 1013.8 hPa West 4.8 km/h 11.3 km/h 59 % 0.0 mm 515 W/m2
18:15 25.9 °C 17.0 °C 1013.4 hPa WSW 4.8 km/h 9.7 km/h 58 % 0.0 mm 503 W/m2
18:20 25.9 °C 17.6 °C 1013.8 hPa WNW 3.2 km/h 9.7 km/h 60 % 0.0 mm 490 W/m2
18:25 26.2 °C 18.3 °C 1013.8 hPa West 9.7 km/h 12.9 km/h 62 % 0.0 mm 476 W/m2
18:30 25.8 °C 17.2 °C 1013.8 hPa WSW 8.0 km/h 12.9 km/h 59 % 0.0 mm 466 W/m2
18:35 25.4 °C 17.4 °C 1013.8 hPa WSW 3.2 km/h 12.9 km/h 61 % 0.0 mm 452 W/m2
18:40 25.5 °C 17.4 °C 1013.8 hPa West 1.6 km/h 11.3 km/h 61 % 0.0 mm 436 W/m2
18:45 25.2 °C 17.1 °C 1013.8 hPa WSW 6.4 km/h 14.5 km/h 61 % 0.0 mm 424 W/m2
18:50 24.9 °C 17.1 °C 1013.8 hPa West 4.8 km/h 14.5 km/h 62 % 0.0 mm 403 W/m2
18:55 25.3 °C 17.2 °C 1013.8 hPa West 4.8 km/h 14.5 km/h 61 % 0.0 mm 396 W/m2
19:00 25.0 °C 17.2 °C 1013.8 hPa West 1.6 km/h 12.9 km/h 62 % 0.0 mm 383 W/m2
19:05 24.3 °C 17.3 °C 1013.8 hPa WSW 8.0 km/h 12.9 km/h 65 % 0.0 mm 369 W/m2
19:10 24.0 °C 17.5 °C 1013.8 hPa WNW 12.9 km/h 16.1 km/h 67 % 0.0 mm 355 W/m2
19:15 23.8 °C 17.6 °C 1013.8 hPa West 8.0 km/h 16.1 km/h 68 % 0.0 mm 341 W/m2
19:20 23.8 °C 17.3 °C 1013.8 hPa WSW 4.8 km/h 14.5 km/h 67 % 0.0 mm 325 W/m2
19:25 24.2 °C 17.7 °C 1013.8 hPa West 8.0 km/h 14.5 km/h 67 % 0.0 mm 311 W/m2
19:30 24.2 °C 17.9 °C 1013.8 hPa West 3.2 km/h 12.9 km/h 68 % 0.0 mm 295 W/m2
19:35 24.4 °C 17.4 °C 1013.8 hPa West 11.3 km/h 12.9 km/h 65 % 0.0 mm 278 W/m2
19:40 23.9 °C 17.4 °C 1013.8 hPa WNW 12.9 km/h 14.5 km/h 67 % 0.0 mm 253 W/m2
19:45 23.4 °C 17.7 °C 1013.8 hPa West 1.6 km/h 14.5 km/h 70 % 0.0 mm 227 W/m2
19:50 23.3 °C 17.6 °C 1013.8 hPa WNW 3.2 km/h 14.5 km/h 70 % 0.0 mm 207 W/m2
19:55 23.6 °C 17.5 °C 1013.8 hPa WSW 3.2 km/h 12.9 km/h 69 % 0.0 mm 192 W/m2
20:00 23.6 °C 17.8 °C 1013.8 hPa WSW 6.4 km/h 11.3 km/h 70 % 0.0 mm 183 W/m2
20:05 23.6 °C 17.5 °C 1013.8 hPa West 8.0 km/h 12.9 km/h 69 % 0.0 mm 178 W/m2
20:10 23.6 °C 17.5 °C 1013.8 hPa WSW 9.7 km/h 12.9 km/h 69 % 0.0 mm 171 W/m2
20:15 23.6 °C 17.5 °C 1013.8 hPa WNW 9.7 km/h 11.3 km/h 69 % 0.0 mm 156 W/m2
20:20 23.4 °C 17.4 °C 1013.8 hPa WSW 8.0 km/h 11.3 km/h 69 % 0.0 mm 134 W/m2
20:25 23.3 °C 17.3 °C 1013.8 hPa WSW 4.8 km/h 11.3 km/h 69 % 0.0 mm 120 W/m2
20:30 23.1 °C 17.6 °C 1013.8 hPa Calm   11.3 km/h 71 % 0.0 mm 109 W/m2
20:35 22.9 °C 17.4 °C 1013.8 hPa West 6.4 km/h 9.7 km/h 71 % 0.0 mm 84 W/m2
20:40 22.7 °C 17.4 °C 1013.8 hPa West 6.4 km/h 9.7 km/h 72 % 0.0 mm 42 W/m2
20:45 22.6 °C 17.5 °C 1013.8 hPa West 4.8 km/h 11.3 km/h 73 % 0.0 mm 39 W/m2
20:50 22.3 °C 17.3 °C 1013.8 hPa West 3.2 km/h 11.3 km/h 73 % 0.0 mm 33 W/m2
20:55 22.2 °C 17.1 °C 1014.1 hPa West 1.6 km/h 8.0 km/h 73 % 0.0 mm 37 W/m2
21:00 21.9 °C 17.3 °C 1013.8 hPa West 1.6 km/h 8.0 km/h 75 % 0.0 mm 30 W/m2
21:05 21.8 °C 17.1 °C 1014.1 hPa WSW 1.6 km/h 8.0 km/h 75 % 0.0 mm 26 W/m2
21:10 21.6 °C 17.1 °C 1014.1 hPa WSW 1.6 km/h 8.0 km/h 76 % 0.0 mm 25 W/m2
21:15 21.3 °C 17.1 °C 1014.1 hPa Calm   6.4 km/h 77 % 0.0 mm 23 W/m2
21:20 21.1 °C 17.1 °C 1014.1 hPa West 3.2 km/h 6.4 km/h 78 % 0.0 mm 21 W/m2
21:25 20.9 °C 17.1 °C 1014.1 hPa West 1.6 km/h 6.4 km/h 79 % 0.0 mm 18 W/m2
21:30 20.8 °C 17.1 °C 1014.1 hPa West 1.6 km/h 6.4 km/h 79 % 0.0 mm 16 W/m2
21:35 20.7 °C 16.7 °C 1014.1 hPa WNW 6.4 km/h 9.7 km/h 78 % 0.0 mm 14 W/m2
21:40 20.7 °C 16.7 °C 1014.1 hPa Calm   9.7 km/h 78 % 0.0 mm 12 W/m2
21:45 20.6 °C 16.4 °C 1014.1 hPa West 3.2 km/h 9.7 km/h 77 % 0.0 mm 11 W/m2
21:50 20.3 °C 16.3 °C 1014.1 hPa WNW 3.2 km/h 9.7 km/h 78 % 0.0 mm 9 W/m2
21:55 19.8 °C 16.1 °C 1014.1 hPa WNW 4.8 km/h 8.0 km/h 79 % 0.0 mm 7 W/m2
22:00 19.6 °C 16.1 °C 1014.4 hPa WNW 6.4 km/h 8.0 km/h 80 % 0.0 mm 5 W/m2
22:05 19.3 °C 16.0 °C 1014.4 hPa Calm   8.0 km/h 81 % 0.0 mm 0 W/m2
22:10 19.1 °C 16.0 °C 1014.4 hPa WNW 3.2 km/h 8.0 km/h 82 % 0.0 mm 0 W/m2
22:15 18.8 °C 15.7 °C 1014.4 hPa NW 4.8 km/h 6.4 km/h 82 % 0.0 mm 0 W/m2
22:20 18.6 °C 15.7 °C 1014.4 hPa WNW 4.8 km/h 8.0 km/h 83 % 0.0 mm 0 W/m2
22:25 18.4 °C 15.7 °C 1014.4 hPa NW 1.6 km/h 9.7 km/h 84 % 0.0 mm 0 W/m2
22:30 18.3 °C 15.5 °C 1014.8 hPa NW 1.6 km/h 9.7 km/h 84 % 0.0 mm 0 W/m2
22:35 18.1 °C 15.4 °C 1014.8 hPa Calm   11.3 km/h 84 % 0.0 mm 0 W/m2
22:40 18.1 °C 15.3 °C 1014.8 hPa WNW 1.6 km/h 11.3 km/h 84 % 0.0 mm 0 W/m2
22:45 17.9 °C 15.3 °C 1014.8 hPa NW 4.8 km/h 9.7 km/h 85 % 0.0 mm 0 W/m2
22:50 17.9 °C 15.3 °C 1014.8 hPa NW 1.6 km/h 6.4 km/h 85 % 0.0 mm 0 W/m2
22:55 17.8 °C 15.4 °C 1014.8 hPa Calm   8.0 km/h 86 % 0.0 mm 0 W/m2
23:00 17.8 °C 15.2 °C 1014.8 hPa WNW 1.6 km/h 8.0 km/h 85 % 0.0 mm 0 W/m2
23:05 17.8 °C 15.4 °C 1014.8 hPa WNW 1.6 km/h 8.0 km/h 86 % 0.0 mm 0 W/m2
23:10 17.6 °C 15.2 °C 1014.8 hPa WNW 1.6 km/h 6.4 km/h 86 % 0.0 mm 0 W/m2
23:15 17.4 °C 15.3 °C 1014.8 hPa WNW 1.6 km/h 4.8 km/h 87 % 0.0 mm 0 W/m2
23:20 17.2 °C 15.0 °C 1015.1 hPa Calm   4.8 km/h 87 % 0.0 mm 0 W/m2
23:25 16.9 °C 14.9 °C 1015.1 hPa Calm   3.2 km/h 88 % 0.0 mm 0 W/m2
23:35 16.8 °C 15.0 °C 1015.1 hPa Calm   4.8 km/h 89 % 0.0 mm 0 W/m2
23:40 16.7 °C 14.8 °C 1015.1 hPa Calm   4.8 km/h 89 % 0.0 mm 0 W/m2
23:45 16.6 °C 14.8 °C 1015.1 hPa WNW 1.6 km/h 4.8 km/h 89 % 0.0 mm 0 W/m2
23:50 16.7 °C 14.8 °C 1015.5 hPa West 6.4 km/h 8.0 km/h 89 % 0.0 mm 0 W/m2
23:55 16.7 °C 14.9 °C 1015.5 hPa West 3.2 km/h 8.0 km/h 89 % 0.0 mm 0 W/m2
Avec l'autorisation de Weather Underground - 1.75 mb